Pagina principală
METAR-TAF:

METAR-TAF

Aeroporturi :

Maracaibo, Venezuela

Latitudine: 10-34N, longitudine: 071-44W, elevație: 66 m

METAR: lipsă

Ora: 02:05 (06:05 UTC)

Prognoză

Raportul a fost făcut în urmă cu 2 ore și 5 de minute, la 04:00 UTC
Prognoză valabilă de la 14 ora 06 UTC la 15 ora 06 UTC
Vânt 8 kt de la Vest
Vizibilitate de 10 km sau mai mult
Nori împrăștiați la o înălțime de 1600 picior
Nori fragmentați la o înălțime de 10000 picior
Temporar
de la 14 ora 05 UTC la 14 ora 07 UTC
Vânt 3 kt de la Sud
Vizibilitate: 9000 m
Nori fragmentați la o înălțime de 1300 picior
Nori fragmentați la o înălțime de 10000 picior
burniță slabă,

TAF: SVMC 140400Z 1406/1506 27008KT 9999 SCT016 BKN100 TX32/1405Z TN24/1408Z TEMPO 1405/1407 18003KT 9000 -DZ BKN013 BKN100

Observații și prognoze meteo pentru peste 4.000 de aeroporturi (rapoarte METAR și TAF).

Stațiile disponibile sunt reprezentate pe hartă prin puncte galbene și roșii.

Țineți indicatorul mouse-ului pe punctul dorit pentru a vedea denumirea stației.

Apoi, faceți clic pentru a vedea observațiile și prognozele meteorologice.

Pentru a schimba harta: Pentru mărire, faceți clic pe butoanele verzi cu cruce neagră; pentru micșorare, pe butonul verde cu o liniuță; pentru hărți învecinate, pe săgețile verzi.


METAR-TAF: